KBBB/BBB METAR and TAF weather

Enter ICAO airport designator
Station Type Date Time Source
KBBB METAR 2021/05/14 03:35 UTC NOAA

KBBB 140335Z AUTO 18005KT 10SM OVC090 14/02 A3016 RMK AO2


Station Type Date Time Source
KBBB Decoded METAR 2021/05/14 03:35 UTC NOAA

Benson Municipal, MN, United States (KBBB) 45-19N 095-39W
May 13, 2021 - 11:35 PM EDT / 2021.05.14 0335 UTC
Wind: from the S (180 degrees) at 6 MPH (5 KT):0
Visibility: 10 mile(s):0
Sky conditions: overcast
Temperature: 57 F (14 C)
Dew Point: 35 F (2 C)
Relative Humidity: 44%
Pressure (altimeter): 30.16 in. Hg (1021 hPa)
ob: KBBB 140335Z AUTO 18005KT 10SM OVC090 14/02 A3016 RMK AO2
cycle: 3

Station Type Date Time Source
KBBB TAF UTC NOAA

Error!

Example: see airport list